Time;durP1;ratioP1;P1;durP2;ratioP2;P2;SDS_P1;SDS_P2;PMS_P1;PMS_P2;Temp;Humidity;BMP_temperature;BMP_pressure;BME280_temperature;BME280_humidity;BME280_pressure;Samples;Min_cycle;Max_cycle;Signal;HPM_P1;HPM_P2
2021/03/11 00:00:11;;;;;;;103.23;39.67;;;;;;;-0.03;53.63;100859.11;5066371;56;1142781;-76
2021/03/11 00:05:22;;;;;;;109.13;42.77;;;;;;;-0.03;53.47;100844.80;5067166;56;1142651;-82
2021/03/11 00:10:27;;;;;;;95.93;39.47;;;;;;;0.02;53.37;100858.50;5066441;56;1143044;-84
2021/03/11 00:15:36;;;;;;;98.93;41.03;;;;;;;0.08;53.28;100843.19;5066819;56;1139141;-84
2021/03/11 00:20:42;;;;;;;104.83;41.88;;;;;;;0.09;52.91;100835.34;5066764;56;1138911;-81
2021/03/11 00:25:47;;;;;;;105.00;37.48;;;;;;;0.08;52.72;100821.94;5066709;56;1141022;-81
2021/03/11 00:30:53;;;;;;;113.77;49.00;;;;;;;0.07;52.66;100815.03;5066723;57;1140517;-79
2021/03/11 00:35:59;;;;;;;87.37;34.43;;;;;;;0.10;52.55;100807.14;5066438;56;1140425;-82
2021/03/11 00:41:04;;;;;;;93.50;37.17;;;;;;;0.10;52.30;100787.64;5066553;56;1138344;-81
2021/03/11 00:46:10;;;;;;;89.80;34.27;;;;;;;0.07;52.09;100779.92;5066392;57;1138369;-84
2021/03/11 00:51:16;;;;;;;79.70;32.57;;;;;;;0.04;52.09;100768.75;5066583;57;1138419;-79
2021/03/11 00:56:21;;;;;;;75.77;33.53;;;;;;;0.04;52.17;100755.75;5066836;57;1138849;-77
2021/03/11 01:01:27;;;;;;;85.80;33.83;;;;;;;0.03;52.18;100748.41;5066908;57;1138594;-82
2021/03/11 01:06:34;;;;;;;79.10;32.00;;;;;;;0.06;52.20;100730.11;5066871;57;1138695;-81
2021/03/11 01:11:40;;;;;;;85.40;35.13;;;;;;;0.09;51.92;100717.02;5066701;57;1138590;-79
2021/03/11 01:16:51;;;;;;;78.60;31.02;;;;;;;0.11;52.00;100707.87;5066627;57;1138583;-78
2021/03/11 01:21:57;;;;;;;76.30;31.67;;;;;;;0.12;51.68;100694.83;5066585;57;1138790;-83
2021/03/11 01:27:03;;;;;;;73.37;30.03;;;;;;;0.16;51.72;100693.80;5066633;57;1138782;-83
2021/03/11 01:32:08;;;;;;;73.17;31.60;;;;;;;0.22;51.22;100694.92;5066604;56;1138683;-78
2021/03/11 01:37:14;;;;;;;83.93;33.00;;;;;;;0.27;50.94;100689.13;5066976;56;1138654;-83
2021/03/11 01:42:20;;;;;;;80.83;33.37;;;;;;;0.31;51.06;100689.86;5067109;56;1138573;-83
2021/03/11 01:47:26;;;;;;;82.60;32.23;;;;;;;0.32;51.08;100685.05;5067118;56;1138929;-79
2021/03/11 01:52:34;;;;;;;83.73;34.00;;;;;;;0.31;50.85;100663.84;5067559;56;1138531;-78
2021/03/11 01:57:40;;;;;;;76.90;33.42;;;;;;;0.24;50.90;100651.51;5067252;57;1139219;-84
2021/03/11 02:02:47;;;;;;;69.93;28.13;;;;;;;0.21;51.22;100637.75;5067057;56;1138552;-81
2021/03/11 02:07:52;;;;;;;77.43;32.20;;;;;;;0.15;51.72;100615.87;5067348;57;1138506;-82
2021/03/11 02:13:08;;;;;;;80.33;31.53;;;;;;;0.09;52.08;100620.81;5067025;56;1138446;-79
2021/03/11 02:18:51;;;;;;;76.53;30.87;;;;;;;0.07;52.33;100612.20;5059157;56;1138452;-78
2021/03/11 02:24:22;;;;;;;73.50;30.47;;;;;;;0.06;52.50;100618.75;5050908;57;1138548;-80
2021/03/11 02:29:35;;;;;;;83.37;33.47;;;;;;;0.03;52.60;100618.40;5050774;57;1139028;-81
2021/03/11 02:34:47;;;;;;;77.25;30.40;;;;;;;0.01;52.72;100595.50;5045886;57;1138632;-78
2021/03/11 02:39:57;;;;;;;73.00;29.93;;;;;;;-0.03;52.88;100586.97;5050004;57;1138499;-84
2021/03/11 02:45:05;;;;;;;81.40;32.97;;;;;;;-0.06;53.09;100575.37;5048226;58;1140513;-82
2021/03/11 02:50:13;;;;;;;77.87;32.80;;;;;;;-0.05;53.15;100567.97;5048663;58;1140651;-78
2021/03/11 02:55:20;;;;;;;74.47;32.40;;;;;;;-0.04;53.14;100556.67;5066078;56;1140706;-83
2021/03/11 03:00:28;;;;;;;89.80;31.90;;;;;;;-0.05;53.41;100543.27;5076447;56;1141077;-81
2021/03/11 03:05:34;;;;;;;69.87;29.43;;;;;;;-0.05;53.49;100533.33;5074411;56;1260152;-80
2021/03/11 03:10:41;;;;;;;80.07;32.23;;;;;;;-0.08;53.90;100526.47;5076749;56;1141248;-81
2021/03/11 03:15:47;;;;;;;58.00;27.22;;;;;;;-0.10;54.16;100519.63;5076699;56;1140906;-81
2021/03/11 03:20:54;;;;;;;77.77;32.37;;;;;;;-0.10;54.30;100510.08;5076801;56;1140862;-77
2021/03/11 03:26:00;;;;;;;87.47;34.07;;;;;;;-0.10;54.32;100502.73;5076559;56;1140771;-79
2021/03/11 03:31:07;;;;;;;69.67;29.37;;;;;;;-0.09;54.35;100500.08;5076445;56;1140962;-81
2021/03/11 03:36:13;;;;;;;65.47;26.17;;;;;;;-0.06;54.51;100499.13;5076518;56;1140596;-79
2021/03/11 03:41:19;;;;;;;67.33;29.70;;;;;;;-0.07;54.67;100471.44;5113948;56;1141591;-82
2021/03/11 03:46:26;;;;;;;75.80;30.33;;;;;;;-0.06;54.72;100470.53;5139767;56;1140975;-79
2021/03/11 03:51:36;;;;;;;65.53;29.87;;;;;;;-0.05;54.79;100457.94;5139518;56;1141141;-80
2021/03/11 03:57:09;;;;;;;56.30;25.13;;;;;;;-0.03;55.21;100460.03;5139623;56;1140559;-79
2021/03/11 04:02:17;;;;;;;50.00;22.07;;;;;;;-0.06;55.12;100453.64;5140037;57;1141020;-79
2021/03/11 04:07:25;;;;;;;58.87;25.90;;;;;;;-0.08;55.54;100454.98;5139671;56;1140908;-79
2021/03/11 04:12:32;;;;;;;64.47;25.63;;;;;;;-0.08;55.69;100432.89;5135433;56;1140590;-78
2021/03/11 04:17:39;;;;;;;56.40;24.10;;;;;;;-0.09;55.77;100417.34;5139664;56;1140582;-78
2021/03/11 04:22:46;;;;;;;62.35;25.10;;;;;;;-0.10;56.05;100397.45;5139885;57;1140997;-79
2021/03/11 04:27:52;;;;;;;58.52;25.02;;;;;;;-0.10;56.09;100390.95;5139556;56;1140970;-85
2021/03/11 04:32:57;;;;;;;57.97;22.90;;;;;;;-0.08;56.16;100386.10;5139440;56;1140704;-87
2021/03/11 04:38:06;;;;;;;41.37;18.30;;;;;;;-0.07;56.26;100372.20;5139443;56;1140612;-81
2021/03/11 04:43:13;;;;;;;54.83;24.47;;;;;;;-0.07;56.54;100368.30;5139437;56;1141516;-84
2021/03/11 04:48:19;;;;;;;66.13;25.00;;;;;;;-0.07;56.67;100354.45;5139681;56;1140767;-81
2021/03/11 04:53:25;;;;;;;62.13;25.63;;;;;;;-0.07;56.62;100347.51;5139504;56;1140845;-82
2021/03/11 04:58:31;;;;;;;46.87;20.77;;;;;;;-0.06;56.95;100332.31;5139616;56;1140713;-82
2021/03/11 05:03:46;;;;;;;53.23;21.93;;;;;;;-0.03;56.80;100331.35;5131409;56;1141014;-81
2021/03/11 05:08:51;;;;;;;44.70;17.30;;;;;;;-0.02;56.94;100315.70;5127086;56;1141248;-79
2021/03/11 05:13:57;;;;;;;54.97;22.27;;;;;;;-0.01;56.74;100307.00;5140695;57;1141253;-75
2021/03/11 05:19:02;;;;;;;54.97;24.50;;;;;;;0.03;56.66;100306.86;5140711;56;1140987;-82
2021/03/11 05:24:09;;;;;;;51.33;23.80;;;;;;;0.07;56.40;100292.39;5140960;56;1139128;-83
2021/03/11 05:29:15;;;;;;;43.57;20.63;;;;;;;0.10;56.39;100290.98;5140639;57;1138968;-83
2021/03/11 05:34:20;;;;;;;34.20;15.20;;;;;;;0.14;56.28;100278.72;5140690;57;1138953;-76
2021/03/11 05:39:26;;;;;;;268.70;117.80;;;;;;;0.16;56.14;100264.72;5140769;56;1138838;-81
2021/03/11 05:44:32;;;;;;;159.83;85.70;;;;;;;0.19;56.00;100253.36;5140259;56;1143437;-82
2021/03/11 05:49:42;;;;;;;53.97;24.37;;;;;;;0.24;55.88;100244.94;5144434;56;1140953;-81
2021/03/11 05:54:48;;;;;;;26.20;13.25;;;;;;;0.28;55.78;100231.76;5126434;57;1139402;-78
2021/03/11 05:59:57;;;;;;;54.23;20.60;;;;;;;0.36;55.67;100232.73;5140493;56;1138897;-82
2021/03/11 06:05:03;;;;;;;55.77;26.77;;;;;;;0.41;55.40;100203.94;5140438;57;1138821;-80
2021/03/11 06:10:12;;;;;;;49.00;19.80;;;;;;;0.46;55.15;100189.00;5140323;56;1139166;-79
2021/03/11 06:15:36;;;;;;;51.23;22.27;;;;;;;0.51;54.50;100192.23;5140247;56;1139010;-81
2021/03/11 06:20:41;;;;;;;49.35;21.23;;;;;;;0.58;54.53;100168.97;5140493;56;1138823;-81
2021/03/11 06:25:49;;;;;;;32.00;15.40;;;;;;;0.63;54.06;100164.39;5140507;57;1138834;-83
2021/03/11 06:30:55;;;;;;;52.43;25.63;;;;;;;0.68;54.06;100149.44;5140371;56;1138925;-81
2021/03/11 06:36:15;;;;;;;26.13;13.20;;;;;;;0.75;53.64;100144.38;5148644;56;1139110;-77
2021/03/11 06:41:21;;;;;;;37.97;16.97;;;;;;;0.82;52.80;100124.11;5159923;56;1139064;-84
2021/03/11 06:46:30;;;;;;;46.60;18.27;;;;;;;0.85;52.42;100113.56;5153698;56;1139102;-81
2021/03/11 06:51:37;;;;;;;42.10;17.53;;;;;;;0.89;52.54;100095.61;5158670;56;1138731;-83
2021/03/11 06:56:44;;;;;;;58.20;23.07;;;;;;;0.93;51.88;100085.42;5160448;56;1144789;-81
2021/03/11 07:01:52;;;;;;;32.50;15.73;;;;;;;0.96;51.96;100079.62;5160517;56;1139060;-85
2021/03/11 07:06:59;;;;;;;48.27;18.63;;;;;;;0.98;51.80;100059.58;5159586;56;1138981;-84
2021/03/11 07:12:05;;;;;;;49.77;18.13;;;;;;;0.98;51.43;100059.58;5159577;56;1138602;-83
2021/03/11 07:17:26;;;;;;;53.87;23.40;;;;;;;1.03;51.58;100043.30;5159318;56;1138899;-79
2021/03/11 07:22:31;;;;;;;35.53;15.93;;;;;;;1.06;51.71;100024.09;5159523;56;1138367;-84
2021/03/11 07:27:42;;;;;;;55.93;23.73;;;;;;;1.09;51.58;100000.48;5159201;56;1138621;-82
2021/03/11 07:32:47;;;;;;;38.63;16.90;;;;;;;1.09;51.58;100000.48;5159144;56;1138518;-82
2021/03/11 07:37:59;;;;;;;46.20;19.85;;;;;;;1.14;51.44;99993.77;5158768;56;1139106;-78
2021/03/11 07:43:04;;;;;;;44.27;20.70;;;;;;;1.18;51.70;99977.08;5159036;56;1136501;-82
2021/03/11 07:48:13;;;;;;;41.07;18.30;;;;;;;1.19;51.54;99974.41;5159540;56;1136400;-82
2021/03/11 07:53:21;;;;;;;48.37;21.67;;;;;;;1.23;51.37;99968.57;5160717;56;1136343;-80
2021/03/11 07:58:27;;;;;;;41.10;17.23;;;;;;;1.25;51.50;99963.67;5160473;56;1136672;-80
2021/03/11 08:03:36;;;;;;;39.45;17.32;;;;;;;1.30;51.28;99943.92;5160874;56;1136544;-81
2021/03/11 08:08:46;;;;;;;48.53;21.53;;;;;;;1.33;50.97;99947.69;5140597;56;1137078;-81
2021/03/11 08:13:52;;;;;;;54.42;23.40;;;;;;;1.37;50.94;99942.27;5160915;56;1136462;-80
2021/03/11 08:18:57;;;;;;;51.77;20.52;;;;;;;1.44;51.36;99956.27;5160780;56;1136551;-77
2021/03/11 08:24:23;;;;;;;66.63;30.53;;;;;;;1.48;51.02;99939.58;5160750;56;1136443;-80
2021/03/11 08:29:32;;;;;;;56.57;21.40;;;;;;;1.56;50.84;99929.60;5160321;56;1137060;-83
2021/03/11 08:34:39;;;;;;;49.57;20.63;;;;;;;1.61;49.91;99921.95;5158187;56;1136552;-84
2021/03/11 08:39:45;;;;;;;49.13;19.97;;;;;;;1.66;49.77;99921.73;5160970;56;1136755;-84
2021/03/11 08:44:51;;;;;;;64.83;22.70;;;;;;;1.68;49.29;99919.39;5161129;56;1136793;-82
2021/03/11 08:49:56;;;;;;;50.03;21.12;;;;;;;1.72;49.91;99917.03;5153957;56;1137285;-77
2021/03/11 08:55:37;;;;;;;42.90;15.63;;;;;;;1.75;49.58;99911.66;5150281;56;1136741;-79
2021/03/11 09:01:06;;;;;;;54.63;20.03;;;;;;;1.73;51.36;99909.59;5148859;56;1136940;-82
2021/03/11 09:06:14;;;;;;;50.00;22.83;;;;;;;1.68;52.10;99908.97;5149818;56;1136785;-80
2021/03/11 09:11:23;;;;;;;63.63;24.40;;;;;;;1.59;55.17;99892.97;5149800;56;1136822;-79
2021/03/11 09:16:29;;;;;;;60.47;25.97;;;;;;;1.43;57.76;99873.36;5128856;56;1137020;-81
2021/03/11 09:21:36;;;;;;;82.93;29.30;;;;;;;1.25;61.18;99843.86;5065683;57;1136822;-76
2021/03/11 09:26:42;;;;;;;84.28;25.97;;;;;;;1.11;62.07;99825.94;5054547;57;1137189;-81
2021/03/11 09:31:48;;;;;;;43.20;18.25;;;;;;;1.01;66.50;99821.20;5065651;57;1137124;-80
2021/03/11 09:36:54;;;;;;;65.28;26.75;;;;;;;0.92;68.17;99814.28;5065948;57;1136837;-81
2021/03/11 09:42:12;;;;;;;72.28;30.44;;;;;;;0.79;68.91;99783.27;5065740;57;1137040;-79
2021/03/11 09:47:29;;;;;;;72.47;30.63;;;;;;;0.70;71.83;99758.09;5065251;57;1136436;-80
2021/03/11 09:52:41;;;;;;;65.53;30.83;;;;;;;0.64;72.21;99741.47;5064078;57;1136637;-80
2021/03/11 09:57:47;;;;;;;57.13;26.93;;;;;;;0.63;74.00;99727.23;5057373;57;1136624;-85
2021/03/11 10:02:55;;;;;;;80.85;29.32;;;;;;;0.58;75.30;99735.30;5063743;57;1136966;-80
2021/03/11 10:08:00;;;;;;;94.25;36.33;;;;;;;0.55;74.09;99732.83;5063666;57;1136771;-79
2021/03/11 10:13:06;;;;;;;63.60;31.27;;;;;;;0.55;75.63;99712.48;5063389;57;1136875;-84
2021/03/11 10:18:11;;;;;;;115.63;49.23;;;;;;;0.51;78.25;99679.72;5063142;57;1137059;-79
2021/03/11 10:23:21;;;;;;;101.67;37.43;;;;;;;0.51;76.37;99679.27;5063907;57;1139147;-83
2021/03/11 10:28:29;;;;;;;61.87;23.93;;;;;;;0.55;76.87;99651.34;5063226;57;1138880;-80
2021/03/11 10:33:36;;;;;;;76.53;33.67;;;;;;;0.56;78.62;99643.46;5064076;57;1136517;-81
2021/03/11 10:38:43;;;;;;;78.23;30.50;;;;;;;0.60;77.71;99652.80;5063359;57;1136660;-77
2021/03/11 10:43:49;;;;;;;82.88;35.90;;;;;;;0.62;76.92;99618.88;5064117;57;1136741;-81
2021/03/11 10:48:55;;;;;;;68.17;31.53;;;;;;;0.65;77.55;99623.92;5063569;57;1136525;-80
2021/03/11 10:54:02;;;;;;;86.35;35.75;;;;;;;0.69;78.09;99604.64;5064103;57;1136848;-80
2021/03/11 10:59:14;;;;;;;68.83;30.70;;;;;;;0.73;77.48;99600.97;5063270;57;1136648;-79
2021/03/11 11:04:16;;;;;;;85.10;33.63;;;;;;;0.78;77.38;99588.99;5063780;57;1137023;-84
2021/03/11 11:09:22;;;;;;;96.13;41.33;;;;;;;0.86;76.69;99591.59;5063334;57;1136883;-81
2021/03/11 11:14:27;;;;;;;61.80;28.03;;;;;;;0.93;76.12;99576.02;5063614;57;1136971;-84
2021/03/11 11:19:33;;;;;;;56.37;24.00;;;;;;;0.97;76.07;99572.33;5148385;56;1136780;-82
2021/03/11 11:24:40;;;;;;;67.35;30.15;;;;;;;0.99;76.27;99543.61;5151647;56;1136446;-83
2021/03/11 11:29:46;;;;;;;65.55;22.93;;;;;;;1.02;76.36;99534.34;5160822;56;1136367;-82
2021/03/11 11:34:53;;;;;;;61.13;25.10;;;;;;;1.03;76.48;99527.75;5160988;56;1136581;-78
2021/03/11 11:40:00;;;;;;;50.90;22.52;;;;;;;1.07;77.17;99514.08;5161006;56;1136541;-79
2021/03/11 11:45:08;;;;;;;62.33;27.97;;;;;;;1.11;76.93;99508.25;5160952;56;1136763;-78
2021/03/11 11:50:14;;;;;;;65.03;31.13;;;;;;;1.13;76.53;99500.73;5160642;56;1136437;-84
2021/03/11 11:55:20;;;;;;;74.37;32.77;;;;;;;1.17;76.88;99494.91;5160120;56;1137026;-79
2021/03/11 12:00:26;;;;;;;53.57;23.70;;;;;;;1.19;77.37;99480.04;5159866;56;1136788;-77
2021/03/11 12:05:32;;;;;;;64.10;30.30;;;;;;;1.23;79.00;99491.48;5159262;56;1137042;-82
2021/03/11 12:10:38;;;;;;;111.37;51.00;;;;;;;1.29;77.86;99448.64;5159644;56;1136255;-82
2021/03/11 12:15:43;;;;;;;75.73;34.47;;;;;;;1.38;78.55;99431.17;5158656;56;1139013;-80
2021/03/11 12:20:49;;;;;;;62.73;30.87;;;;;;;1.40;80.95;99426.72;5159805;56;1136451;-78
2021/03/11 12:25:57;;;;;;;61.55;27.65;;;;;;;1.46;80.02;99417.25;5159890;56;1136467;-77
2021/03/11 12:31:04;;;;;;;30.52;13.65;;;;;;;1.48;81.31;99421.92;5159469;56;1136480;-80
2021/03/11 12:36:12;;;;;;;38.57;16.53;;;;;;;1.55;81.63;99406.28;5159510;56;1136614;-80
2021/03/11 12:41:17;;;;;;;59.63;30.07;;;;;;;1.58;82.76;99399.59;5143183;56;1136488;-79
2021/03/11 12:46:23;;;;;;;109.30;42.47;;;;;;;1.61;80.62;99389.47;5138935;56;1136849;-80
2021/03/11 12:51:28;;;;;;;43.60;21.00;;;;;;;1.66;80.63;99371.34;5138876;56;1138921;-78
2021/03/11 12:56:34;;;;;;;60.23;30.60;;;;;;;1.67;80.89;99341.74;5097009;56;1136828;-82
2021/03/11 13:01:39;;;;;;;62.70;29.90;;;;;;;1.72;80.80;99346.19;5066122;57;1136517;-81
2021/03/11 13:06:45;;;;;;;51.83;25.93;;;;;;;1.70;82.61;99324.59;5065811;57;1136811;-79
2021/03/11 13:11:50;;;;;;;49.93;24.97;;;;;;;1.67;82.17;99322.66;5065988;57;1136327;-81
2021/03/11 13:16:56;;;;;;;47.80;23.62;;;;;;;1.67;81.29;99307.02;5066597;57;1136394;-81
2021/03/11 13:22:02;;;;;;;36.88;19.52;;;;;;;1.65;81.93;99300.59;5067092;57;1136394;-79
2021/03/11 13:27:08;;;;;;;59.43;31.40;;;;;;;1.63;82.25;99312.88;5065974;57;1136383;-80
2021/03/11 13:32:14;;;;;;;50.87;26.23;;;;;;;1.63;81.85;99314.64;5100502;56;1136464;-85
2021/03/11 13:37:19;;;;;;;47.17;26.07;;;;;;;1.63;83.86;99299.84;5150916;56;1136940;-84
2021/03/11 13:42:27;;;;;;;59.60;29.43;;;;;;;1.66;82.78;99301.44;5150615;56;1137023;-78
2021/03/11 13:47:32;;;;;;;48.73;23.83;;;;;;;1.63;83.65;99285.98;5150991;56;1136820;-81
2021/03/11 13:52:39;;;;;;;52.47;25.23;;;;;;;1.62;84.26;99278.63;5150779;56;1137043;-80
2021/03/11 13:57:45;;;;;;;63.97;27.87;;;;;;;1.59;84.38;99222.78;5155410;56;1136977;-82
2021/03/11 14:02:52;;;;;;;83.83;36.73;;;;;;;1.59;84.38;99222.78;5161287;56;1136890;-78
2021/03/11 14:07:57;;;;;;;142.10;44.60;;;;;;;1.65;85.55;99205.94;5161840;56;1136776;-81
2021/03/11 14:13:04;;;;;;;75.20;29.12;;;;;;;1.70;85.21;99166.91;5161824;56;1139029;-79
2021/03/11 14:18:10;;;;;;;46.83;21.13;;;;;;;1.78;84.75;99152.58;5161677;56;1136815;-81
2021/03/11 14:23:15;;;;;;;46.90;22.90;;;;;;;1.79;85.41;99148.58;5161183;56;1136830;-79
2021/03/11 14:28:21;;;;;;;61.23;30.10;;;;;;;1.89;86.90;99157.94;5161378;56;1136816;-82
2021/03/11 14:33:27;;;;;;;49.30;24.27;;;;;;;1.97;85.05;99123.10;5160726;56;1137149;-78
2021/03/11 14:38:32;;;;;;;65.80;25.70;;;;;;;2.02;86.06;99117.94;5161023;56;1136592;-81
2021/03/11 14:43:38;;;;;;;43.02;22.17;;;;;;;2.08;86.27;99099.30;5160868;56;1136492;-79
2021/03/11 14:48:44;;;;;;;163.97;66.93;;;;;;;2.12;86.81;99090.81;5160684;56;1136434;-80
2021/03/11 14:53:50;;;;;;;66.53;30.37;;;;;;;2.20;86.22;99078.55;5161373;56;1138486;-80
2021/03/11 14:58:55;;;;;;;52.00;28.15;;;;;;;2.29;86.85;99079.27;5088911;56;1137158;-80
2021/03/11 15:04:01;;;;;;;55.20;29.07;;;;;;;2.37;86.46;99096.53;5073762;57;1136540;-81
2021/03/11 15:09:07;;;;;;;43.75;22.20;;;;;;;2.45;86.27;99075.97;5120949;56;1136821;-81
2021/03/11 15:14:12;;;;;;;47.83;25.00;;;;;;;2.53;86.34;99061.11;5141272;56;1136891;-80
2021/03/11 15:19:18;;;;;;;50.03;24.93;;;;;;;2.62;85.84;99039.59;5158613;56;1136824;-79
2021/03/11 15:24:23;;;;;;;39.53;19.87;;;;;;;2.69;86.02;99027.80;5154610;56;1136836;-81
2021/03/11 15:29:29;;;;;;;47.40;24.17;;;;;;;2.74;86.68;99021.34;5138920;56;1136798;-81
2021/03/11 15:34:35;;;;;;;39.20;22.57;;;;;;;2.79;86.35;98997.03;5139097;56;1136262;-81
2021/03/11 15:39:40;;;;;;;43.43;23.53;;;;;;;2.84;87.01;98975.83;5139479;56;1136501;-79
2021/03/11 15:44:46;;;;;;;41.13;21.97;;;;;;;2.92;86.54;98977.41;5139497;56;1136300;-80
2021/03/11 15:49:52;;;;;;;38.00;20.57;;;;;;;2.98;87.23;98956.10;5139356;56;1140862;-80
2021/03/11 15:54:57;;;;;;;50.60;26.03;;;;;;;3.02;88.37;98942.36;5139341;56;1137054;-82
2021/03/11 16:00:05;;;;;;;71.60;34.03;;;;;;;3.05;87.31;98917.33;5139886;56;1137236;-78
2021/03/11 16:05:13;;;;;;;43.07;20.10;;;;;;;3.09;87.92;98913.53;5139631;56;1136845;-83
2021/03/11 16:10:19;;;;;;;49.47;24.50;;;;;;;3.13;87.18;98920.20;5140209;56;1136825;-78
2021/03/11 16:15:24;;;;;;;51.50;26.60;;;;;;;3.16;87.34;98916.08;5140306;56;1136860;-80
2021/03/11 16:20:30;;;;;;;64.77;31.13;;;;;;;3.17;87.85;98900.30;5140493;56;1136736;-80
2021/03/11 16:25:36;;;;;;;26.00;10.77;;;;;;;3.22;86.98;98884.73;5145021;56;1136508;-82
2021/03/11 16:30:43;;;;;;;34.92;19.35;;;;;;;3.24;89.15;98887.59;5149137;56;1136469;-79
2021/03/11 16:35:50;;;;;;;51.40;24.70;;;;;;;3.26;89.15;98875.26;5148539;56;1141926;-81
2021/03/11 16:40:56;;;;;;;34.03;18.03;;;;;;;3.29;88.55;98848.08;5133091;56;1136766;-80
2021/03/11 16:46:04;;;;;;;68.70;33.60;;;;;;;3.35;89.04;98855.47;5149278;56;1137041;-82
2021/03/11 16:51:10;;;;;;;34.40;19.67;;;;;;;3.38;88.11;98830.39;5149265;56;1136978;-81
2021/03/11 16:56:15;;;;;;;37.27;17.67;;;;;;;3.44;88.16;98830.78;5149629;56;1136998;-80
2021/03/11 17:01:21;;;;;;;36.77;20.00;;;;;;;3.48;88.08;98851.83;5149252;56;1136890;-78
2021/03/11 17:06:27;;;;;;;41.43;21.60;;;;;;;3.53;88.20;98873.67;5149508;56;1139184;-79
2021/03/11 17:11:33;;;;;;;30.07;16.60;;;;;;;3.58;88.58;98855.88;5150467;56;1137210;-85
2021/03/11 17:16:39;;;;;;;39.63;20.27;;;;;;;3.62;89.75;98836.41;5150082;56;1137048;-82
2021/03/11 17:21:45;;;;;;;76.77;35.57;;;;;;;3.69;89.49;98831.05;5150227;56;1136843;-81
2021/03/11 17:26:51;;;;;;;61.33;32.55;;;;;;;3.72;89.27;98782.45;5164182;56;1136908;-80
2021/03/11 17:31:57;;;;;;;106.27;48.38;;;;;;;3.80;90.29;98785.33;5139938;56;1136847;-80
2021/03/11 17:37:02;;;;;;;70.02;33.22;;;;;;;3.87;90.34;98783.05;5150033;56;1138871;-81
2021/03/11 17:42:09;;;;;;;58.80;29.05;;;;;;;3.95;89.31;98795.55;5150484;56;1137084;-80
2021/03/11 17:47:15;;;;;;;28.30;14.40;;;;;;;3.95;89.82;98775.93;5150507;56;1136917;-78
2021/03/11 17:52:21;;;;;;;27.33;15.33;;;;;;;3.99;90.01;98787.31;5138855;56;1137108;-77
2021/03/11 17:57:26;;;;;;;33.90;17.37;;;;;;;4.04;89.76;98797.43;5112978;56;1137165;-78
2021/03/11 18:02:32;;;;;;;32.40;18.70;;;;;;;4.07;88.98;98795.41;5119981;56;1136998;-81
2021/03/11 18:07:38;;;;;;;27.63;15.40;;;;;;;4.10;88.70;98789.95;5150573;56;1136897;-80
2021/03/11 18:12:44;;;;;;;53.10;28.97;;;;;;;4.08;88.65;98787.92;5150512;56;1136870;-79
2021/03/11 18:17:50;;;;;;;47.83;24.27;;;;;;;4.04;87.57;98793.03;5150724;56;1138763;-79
2021/03/11 18:22:55;;;;;;;75.50;36.23;;;;;;;4.00;88.23;98792.91;5150499;56;1138565;-80
2021/03/11 18:28:02;;;;;;;80.80;38.42;;;;;;;3.95;88.07;98785.08;5150038;56;1136537;-80
2021/03/11 18:33:07;;;;;;;156.33;56.50;;;;;;;3.94;87.59;98773.79;5149982;56;1138945;-78
2021/03/11 18:38:14;;;;;;;94.80;37.33;;;;;;;3.95;87.49;98778.55;5149123;56;1140501;-78
2021/03/11 18:43:20;;;;;;;123.03;46.57;;;;;;;3.96;87.71;98760.12;5149404;56;1139011;-77
2021/03/11 18:48:26;;;;;;;80.63;34.30;;;;;;;4.00;87.86;98760.69;5150125;56;1139287;-78
2021/03/11 18:53:31;;;;;;;57.57;22.83;;;;;;;4.02;87.84;98761.40;5150275;56;1137247;-80
2021/03/11 18:58:40;;;;;;;59.83;22.37;;;;;;;4.07;88.13;98771.88;5150024;56;1138894;-82
2021/03/11 19:03:45;;;;;;;51.33;21.23;;;;;;;4.14;88.24;98786.59;5145278;56;1139239;-81
2021/03/11 19:08:51;;;;;;;33.83;15.93;;;;;;;4.19;89.60;98825.84;5092484;56;1136821;-81
2021/03/11 19:13:56;;;;;;;38.40;17.23;;;;;;;4.27;90.43;98823.95;5083088;56;1146123;-80
2021/03/11 19:19:02;;;;;;;29.18;14.58;;;;;;;4.37;89.80;98786.92;5135102;56;1136906;-77
2021/03/11 19:24:08;;;;;;;29.30;14.28;;;;;;;4.46;89.52;98776.18;5161755;56;1136858;-76
2021/03/11 19:29:14;;;;;;;26.63;11.70;;;;;;;4.54;89.82;98774.63;5144093;56;1136828;-78
2021/03/11 19:34:19;;;;;;;84.83;29.70;;;;;;;4.67;90.50;98781.48;5138684;56;1137153;-78
2021/03/11 19:39:26;;;;;;;36.57;15.07;;;;;;;4.76;89.84;98765.84;5142453;56;1139052;-79
2021/03/11 19:44:31;;;;;;;69.90;24.23;;;;;;;4.83;90.36;98776.66;5143827;56;1139200;-77
2021/03/11 19:49:37;;;;;;;52.60;18.97;;;;;;;4.88;89.75;98771.41;5127187;56;1138933;-76
2021/03/11 19:54:43;;;;;;;59.00;24.97;;;;;;;4.91;90.08;98767.69;5126875;56;1138656;-75
2021/03/11 19:59:49;;;;;;;44.00;17.43;;;;;;;4.98;89.08;98762.30;5115915;56;1138507;-78
2021/03/11 20:04:55;;;;;;;23.07;10.33;;;;;;;5.01;89.88;98759.91;5076758;56;1138782;-78
2021/03/11 20:10:01;;;;;;;46.10;19.37;;;;;;;5.04;89.93;98719.06;5129897;56;1138607;-78
2021/03/11 20:15:09;;;;;;;32.83;16.80;;;;;;;5.05;88.96;98728.08;5139316;57;1138661;-78
2021/03/11 20:20:15;;;;;;;23.40;11.73;;;;;;;5.05;88.69;98735.94;5156876;56;1138567;-78
2021/03/11 20:25:23;;;;;;;24.70;12.40;;;;;;;5.06;89.05;98733.66;5139262;56;1138610;-77
2021/03/11 20:30:30;;;;;;;21.43;13.47;;;;;;;5.09;88.84;98743.06;5126100;56;1138447;-77
2021/03/11 20:35:36;;;;;;;17.93;8.80;;;;;;;5.15;88.61;98741.26;5153393;56;1138712;-77
2021/03/11 20:40:42;;;;;;;16.13;10.30;;;;;;;5.16;88.75;98742.92;5145106;56;1136633;-77
2021/03/11 20:45:48;;;;;;;16.03;8.63;;;;;;;5.22;88.65;98747.62;5145004;56;1138821;-77
2021/03/11 20:50:54;;;;;;;13.27;7.37;;;;;;;5.29;88.92;98765.35;5143832;56;1209804;-77
2021/03/11 20:55:59;;;;;;;20.92;12.53;;;;;;;5.37;89.22;98776.97;5145394;56;1136434;-76
2021/03/11 21:01:05;;;;;;;19.85;10.25;;;;;;;5.42;89.84;98789.22;5157673;56;1138522;-77
2021/03/11 21:06:11;;;;;;;21.62;12.07;;;;;;;5.50;90.24;98802.53;5159867;56;1138620;-78
2021/03/11 21:11:17;;;;;;;17.83;9.27;;;;;;;5.55;90.11;98799.85;5160803;56;1138494;-78
2021/03/11 21:16:22;;;;;;;16.55;10.10;;;;;;;5.60;89.66;98790.30;5142336;56;1136405;-77
2021/03/11 21:21:29;;;;;;;18.50;10.33;;;;;;;5.63;89.43;98797.91;5147795;56;1138804;-77
2021/03/11 21:26:35;;;;;;;17.93;8.57;;;;;;;5.64;89.93;98804.82;5149934;56;1138643;-74
2021/03/11 21:31:40;;;;;;;15.10;9.00;;;;;;;5.66;89.73;98791.90;5135912;56;1136562;-76
2021/03/11 21:36:46;;;;;;;16.97;10.07;;;;;;;5.66;89.80;98805.02;5136223;57;1134486;-75
2021/03/11 21:41:52;;;;;;;16.30;8.50;;;;;;;5.69;89.96;98784.73;5136091;56;1136594;-76
2021/03/11 21:46:57;;;;;;;18.03;10.73;;;;;;;5.69;90.00;98783.42;5136685;56;1134533;-75
2021/03/11 21:52:03;;;;;;;17.70;8.48;;;;;;;5.68;89.54;98780.45;5136331;56;1136893;-76
2021/03/11 21:57:09;;;;;;;19.48;9.15;;;;;;;5.68;89.77;98793.08;5137119;56;1134478;-74
2021/03/11 22:02:14;;;;;;;18.83;8.50;;;;;;;5.67;89.24;98790.11;5136937;56;1136413;-76
2021/03/11 22:07:20;;;;;;;15.93;8.17;;;;;;;5.62;89.70;98783.13;5137019;56;1134271;-75
2021/03/11 22:12:25;;;;;;;17.03;9.37;;;;;;;5.60;89.02;98791.13;5142763;56;1136373;-74
2021/03/11 22:17:31;;;;;;;17.53;7.23;;;;;;;5.55;88.41;98787.22;5145768;56;1136550;-77
2021/03/11 22:22:36;;;;;;;17.43;6.73;;;;;;;5.50;89.08;98790.73;5145828;56;1136772;-76
2021/03/11 22:27:42;;;;;;;16.57;7.30;;;;;;;5.43;89.17;98794.81;5145628;56;1136458;-75
2021/03/11 22:32:49;;;;;;;9.30;4.13;;;;;;;5.41;88.57;98809.84;5144990;56;1136322;-77
2021/03/11 22:37:55;;;;;;;17.50;6.67;;;;;;;5.37;89.21;98810.56;5145639;56;1134343;-74
2021/03/11 22:43:01;;;;;;;69.63;20.93;;;;;;;5.36;88.17;98809.38;5145649;56;1136403;-75
2021/03/11 22:48:07;;;;;;;15.47;4.97;;;;;;;5.34;88.26;98812.63;5145547;56;1138399;-76
2021/03/11 22:53:13;;;;;;;18.73;5.30;;;;;;;5.32;88.14;98811.92;5145927;56;1136355;-77
2021/03/11 22:58:18;;;;;;;9.27;3.83;;;;;;;5.32;88.58;98833.73;5145779;56;1136805;-77
2021/03/11 23:03:24;;;;;;;15.53;4.73;;;;;;;5.32;88.58;98833.73;5145919;56;1132751;-73
2021/03/11 23:08:31;;;;;;;6.47;3.27;;;;;;;5.33;88.41;98839.80;5145543;56;1134183;-77